createdAt,value
2022-11-24T00:00:26.095Z,99.69
2022-11-24T00:02:24.565Z,100.00
2022-11-24T00:04:22.760Z,100.00
2022-11-24T00:06:21.097Z,100.00
2022-11-24T00:08:19.493Z,100.00
2022-11-24T00:10:18.010Z,100.00
2022-11-24T00:12:17.846Z,100.00
2022-11-24T00:14:15.923Z,100.00
2022-11-24T00:16:15.990Z,100.00
2022-11-24T00:18:14.475Z,100.00
2022-11-24T00:20:12.874Z,100.00
2022-11-24T00:22:11.174Z,100.00
2022-11-24T00:24:09.680Z,100.00
2022-11-24T00:26:10.248Z,100.00
2022-11-24T00:28:10.053Z,100.00
2022-11-24T00:30:12.391Z,100.00
2022-11-24T00:32:10.924Z,100.00
2022-11-24T00:34:12.597Z,100.00
2022-11-24T00:36:10.852Z,100.00
2022-11-24T00:38:08.938Z,100.00
2022-11-24T00:40:10.971Z,100.00
2022-11-24T00:42:09.441Z,100.00
2022-11-24T00:44:09.727Z,100.00
2022-11-24T00:46:08.153Z,100.00
2022-11-24T00:48:07.203Z,100.00
2022-11-24T00:50:06.203Z,100.00
2022-11-24T00:52:04.417Z,100.00
2022-11-24T00:54:02.890Z,100.00
2022-11-24T00:56:03.673Z,100.00
2022-11-24T00:58:01.921Z,100.00
2022-11-24T01:00:01.547Z,100.00
2022-11-24T01:02:02.692Z,100.00
2022-11-24T01:04:02.673Z,100.00
2022-11-24T01:06:04.624Z,100.00
2022-11-24T01:08:03.084Z,100.00
2022-11-24T01:10:01.762Z,100.00
2022-11-24T01:12:02.733Z,100.00
2022-11-24T01:14:03.792Z,100.00
2022-11-24T01:16:03.563Z,100.00
2022-11-24T01:18:01.968Z,100.00
2022-11-24T01:20:00.153Z,100.00
2022-11-24T01:21:58.365Z,100.00
2022-11-24T01:23:56.712Z,100.00
2022-11-24T01:25:55.161Z,100.00
2022-11-24T01:27:53.523Z,100.00
2022-11-24T01:29:51.702Z,100.00
2022-11-24T01:31:51.328Z,100.00
2022-11-24T01:33:49.900Z,100.00
2022-11-24T01:35:48.074Z,100.00
2022-11-24T01:37:46.376Z,100.00
2022-11-24T01:39:44.644Z,100.00
2022-11-24T01:41:43.157Z,100.00
2022-11-24T01:43:42.200Z,100.00
2022-11-24T01:45:41.750Z,100.00
2022-11-24T01:47:42.287Z,100.00
2022-11-24T01:49:46.022Z,100.00
2022-11-24T01:51:48.800Z,100.00
2022-11-24T01:53:53.679Z,100.00
2022-11-24T01:55:53.848Z,100.00
2022-11-24T01:57:56.653Z,100.00
2022-11-24T02:00:01.030Z,100.00
2022-11-24T02:01:59.707Z,100.00
2022-11-24T02:04:01.113Z,100.00
2022-11-24T02:06:03.737Z,100.00
2022-11-24T02:08:03.220Z,100.00
2022-11-24T02:10:05.932Z,100.00
2022-11-24T02:12:04.736Z,100.00
2022-11-24T02:14:03.333Z,100.00
2022-11-24T02:16:02.462Z,100.00
2022-11-24T02:18:00.975Z,100.00
2022-11-24T02:20:04.148Z,100.00
2022-11-24T02:22:04.144Z,100.00
2022-11-24T02:24:10.252Z,100.00
2022-11-24T02:26:20.322Z,100.00
2022-11-24T02:28:22.602Z,100.00
2022-11-24T02:30:20.867Z,100.00
2022-11-24T02:32:21.091Z,100.00
2022-11-24T02:34:19.364Z,100.00
2022-11-24T02:36:17.790Z,100.00
2022-11-24T02:38:16.315Z,100.00
2022-11-24T02:40:16.795Z,100.00
2022-11-24T02:42:15.202Z,100.00
2022-11-24T02:44:19.179Z,100.00
2022-11-24T02:46:17.630Z,100.00
2022-11-24T02:48:16.303Z,100.00
2022-11-24T02:50:14.820Z,100.00
2022-11-24T02:52:12.925Z,100.00
2022-11-24T02:54:11.177Z,100.00
2022-11-24T02:56:09.731Z,100.00
2022-11-24T02:58:07.954Z,100.00
2022-11-24T03:00:09.572Z,100.00
2022-11-24T03:02:07.802Z,100.00
2022-11-24T03:04:06.139Z,100.00
2022-11-24T03:06:04.493Z,100.00
2022-11-24T03:08:02.712Z,100.00
2022-11-24T03:10:00.938Z,100.00
2022-11-24T03:11:59.178Z,100.00
2022-11-24T03:13:57.546Z,100.00
2022-11-24T03:15:57.311Z,100.00
2022-11-24T03:17:56.953Z,100.00
2022-11-24T03:19:55.854Z,100.00
2022-11-24T03:21:56.161Z,100.00
2022-11-24T03:23:55.357Z,100.00
2022-11-24T03:25:53.611Z,100.00
2022-11-24T03:27:51.798Z,100.00
2022-11-24T03:29:49.950Z,100.00
2022-11-24T03:31:49.612Z,100.00
2022-11-24T03:33:47.827Z,100.00
2022-11-24T03:35:46.065Z,100.00
2022-11-24T03:37:44.379Z,100.00
2022-11-24T03:39:42.655Z,100.00
2022-11-24T03:41:40.879Z,100.00
2022-11-24T03:43:43.507Z,100.00
2022-11-24T03:45:46.526Z,100.00
2022-11-24T03:47:46.809Z,100.00
2022-11-24T03:49:45.001Z,100.00
2022-11-24T03:51:43.257Z,100.00
2022-11-24T03:53:41.553Z,100.00
2022-11-24T03:55:40.149Z,99.16
2022-11-24T03:57:38.362Z,99.09
2022-11-24T03:59:38.321Z,99.83
2022-11-24T04:01:36.942Z,100.00
2022-11-24T04:03:36.944Z,100.00
2022-11-24T04:05:36.417Z,100.00
2022-11-24T04:07:42.505Z,100.00
2022-11-24T04:09:40.947Z,100.00
2022-11-24T04:11:53.062Z,100.00
2022-11-24T04:13:51.378Z,100.00
2022-11-24T04:15:49.822Z,100.00
2022-11-24T04:17:49.906Z,100.00
2022-11-24T04:19:49.886Z,100.00
2022-11-24T04:21:48.126Z,100.00
2022-11-24T04:23:46.377Z,100.00
2022-11-24T04:25:44.761Z,100.00
2022-11-24T04:27:43.278Z,100.00
2022-11-24T04:29:41.556Z,100.00
2022-11-24T04:31:39.979Z,100.00
2022-11-24T04:33:38.166Z,100.00
2022-11-24T04:35:38.228Z,100.00
2022-11-24T04:37:36.605Z,100.00
2022-11-24T04:39:35.251Z,100.00
2022-11-24T04:41:33.817Z,100.00
2022-11-24T04:43:36.343Z,100.00
2022-11-24T04:45:37.452Z,100.00
2022-11-24T04:47:36.059Z,100.00
2022-11-24T04:49:34.398Z,100.00
2022-11-24T04:51:34.009Z,100.00
2022-11-24T04:53:32.378Z,100.00
2022-11-24T04:55:30.776Z,100.00
2022-11-24T04:57:29.450Z,100.00
2022-11-24T04:59:27.733Z,100.00
2022-11-24T05:01:29.116Z,100.00
2022-11-24T05:03:27.436Z,100.00
2022-11-24T05:05:25.734Z,100.00
2022-11-24T05:07:25.378Z,100.00
2022-11-24T05:09:36.718Z,100.00
2022-11-24T05:11:41.955Z,100.00
2022-11-24T05:13:40.428Z,100.00
2022-11-24T05:15:39.463Z,100.00
2022-11-24T05:17:40.240Z,100.00
2022-11-24T05:19:38.788Z,100.00
2022-11-24T05:21:38.246Z,100.00
2022-11-24T05:23:37.875Z,100.00
2022-11-24T05:25:36.839Z,100.00
2022-11-24T05:27:35.321Z,100.00
2022-11-24T05:29:33.694Z,100.00
2022-11-24T05:31:32.264Z,100.00
2022-11-24T05:33:33.513Z,100.00
2022-11-24T05:35:32.101Z,100.00
2022-11-24T05:37:30.479Z,100.00
2022-11-24T05:39:30.230Z,100.00
2022-11-24T05:41:28.336Z,100.00
2022-11-24T05:43:26.759Z,100.00
2022-11-24T05:45:24.978Z,100.00
2022-11-24T05:47:23.769Z,100.00
2022-11-24T05:49:21.856Z,100.00
2022-11-24T05:51:20.137Z,100.00
2022-11-24T05:53:18.510Z,99.71
2022-11-24T05:55:20.063Z,100.00
2022-11-24T05:57:18.781Z,100.00
2022-11-24T05:59:17.011Z,100.00
2022-11-24T06:01:15.323Z,100.00
2022-11-24T06:03:13.779Z,100.00
2022-11-24T06:05:11.935Z,100.00
2022-11-24T06:07:12.425Z,100.00
2022-11-24T06:09:10.836Z,100.00
2022-11-24T06:11:19.731Z,100.00
2022-11-24T06:13:18.169Z,100.00
2022-11-24T06:15:17.399Z,100.00
2022-11-24T06:17:18.822Z,100.00
2022-11-24T06:19:17.078Z,100.00
2022-11-24T06:21:15.366Z,100.00
2022-11-24T06:23:18.525Z,100.00
2022-11-24T06:25:17.362Z,100.00
2022-11-24T06:27:25.922Z,100.00
2022-11-24T06:29:24.280Z,100.00
2022-11-24T06:31:24.841Z,100.00
2022-11-24T06:33:23.270Z,100.00
2022-11-24T06:35:22.773Z,99.59
2022-11-24T06:37:21.093Z,98.88
2022-11-24T06:39:19.449Z,98.91
2022-11-24T06:41:18.260Z,98.53
2022-11-24T06:43:18.038Z,97.51
2022-11-24T06:45:16.426Z,97.66
2022-11-24T06:47:14.696Z,96.81
2022-11-24T06:49:13.135Z,96.53
2022-11-24T06:51:14.202Z,97.27
2022-11-24T06:53:13.231Z,97.78
2022-11-24T06:55:11.453Z,97.09
2022-11-24T06:57:09.859Z,96.40
2022-11-24T06:59:15.678Z,97.64
2022-11-24T07:01:15.978Z,98.00
2022-11-24T07:03:16.659Z,97.24
2022-11-24T07:05:39.507Z,96.61
2022-11-24T07:07:43.261Z,97.25
2022-11-24T07:09:41.607Z,97.54
2022-11-24T07:11:40.591Z,98.15
2022-11-24T07:13:39.180Z,97.23
2022-11-24T07:15:41.777Z,97.22
2022-11-24T07:17:41.065Z,97.08
2022-11-24T07:19:39.371Z,97.30
2022-11-24T07:21:37.840Z,96.64
2022-11-24T07:23:41.854Z,97.27
2022-11-24T07:25:40.041Z,96.41
2022-11-24T07:27:38.471Z,96.10
2022-11-24T07:29:36.714Z,95.53
2022-11-24T07:31:38.281Z,95.18
2022-11-24T07:33:41.415Z,93.94
2022-11-24T07:35:42.247Z,94.36
2022-11-24T07:37:40.681Z,94.59
2022-11-24T07:39:38.944Z,94.93
2022-11-24T07:41:37.087Z,94.88
2022-11-24T07:43:36.949Z,95.15
2022-11-24T07:45:35.202Z,95.07
2022-11-24T07:47:34.834Z,95.11
2022-11-24T07:49:33.109Z,94.66
2022-11-24T07:51:31.369Z,93.94
2022-11-24T07:53:29.834Z,92.99
2022-11-24T07:55:28.308Z,91.88
2022-11-24T07:57:26.649Z,91.56
2022-11-24T07:59:24.855Z,91.79
2022-11-24T08:01:23.182Z,92.00
2022-11-24T08:03:22.907Z,92.77
2022-11-24T08:05:21.416Z,92.43
2022-11-24T08:07:19.690Z,92.18
2022-11-24T08:09:18.066Z,92.37
2022-11-24T08:11:18.571Z,93.45
2022-11-24T08:13:16.809Z,93.67
2022-11-24T08:15:15.147Z,93.53
2022-11-24T08:17:13.896Z,93.05
2022-11-24T08:19:25.866Z,93.24
2022-11-24T08:21:27.109Z,93.26
2022-11-24T08:23:25.324Z,93.01
2022-11-24T08:25:25.397Z,93.04
2022-11-24T08:27:23.711Z,93.03
2022-11-24T08:29:26.415Z,93.68
2022-11-24T08:31:28.457Z,94.25
2022-11-24T08:33:32.623Z,94.41
2022-11-24T08:35:40.209Z,93.81
2022-11-24T08:37:38.766Z,93.59
2022-11-24T08:39:37.235Z,93.79
2022-11-24T08:41:40.616Z,92.94
2022-11-24T08:43:40.685Z,92.11
2022-11-24T08:45:41.635Z,91.38
2022-11-24T08:48:06.117Z,91.66
2022-11-24T08:50:07.081Z,91.29
2022-11-24T08:52:07.106Z,90.19
2022-11-24T08:54:05.687Z,90.62
2022-11-24T08:56:04.478Z,89.85
2022-11-24T08:58:03.464Z,88.88
2022-11-24T09:00:04.715Z,87.90
2022-11-24T09:02:05.247Z,88.27
2022-11-24T09:04:05.690Z,88.13
2022-11-24T09:06:04.188Z,87.18
2022-11-24T09:08:06.803Z,85.85
2022-11-24T09:10:20.983Z,83.06
2022-11-24T09:12:22.657Z,82.50
2022-11-24T09:14:21.921Z,82.15
2022-11-24T09:16:23.009Z,81.53
2022-11-24T09:18:26.337Z,82.07
2022-11-24T09:20:29.313Z,81.94
2022-11-24T09:22:34.550Z,82.01
2022-11-24T09:24:34.273Z,81.99
2022-11-24T09:26:37.182Z,82.15
2022-11-24T09:28:35.940Z,82.10
2022-11-24T09:30:36.935Z,81.49
2022-11-24T09:32:35.414Z,81.20
2022-11-24T09:34:49.151Z,79.02
2022-11-24T09:36:47.667Z,78.61
2022-11-24T09:38:48.103Z,79.25
2022-11-24T09:40:47.947Z,79.06
2022-11-24T09:43:00.787Z,77.98
2022-11-24T09:45:57.568Z,78.28
2022-11-24T09:48:20.553Z,78.70
2022-11-24T09:50:24.763Z,78.53
2022-11-24T09:52:39.657Z,78.62
2022-11-24T09:54:46.597Z,79.24
2022-11-24T09:56:48.409Z,79.32
2022-11-24T09:59:17.964Z,78.53
2022-11-24T10:01:52.735Z,78.05
2022-11-24T10:04:02.613Z,76.67
2022-11-24T10:06:11.768Z,77.79
2022-11-24T10:08:39.709Z,76.01
2022-11-24T10:11:00.871Z,78.31
2022-11-24T10:13:16.435Z,76.03
2022-11-24T10:15:46.941Z,77.01
2022-11-24T10:18:25.066Z,76.84
2022-11-24T10:20:29.431Z,78.63
2022-11-24T10:22:44.353Z,79.68
2022-11-24T10:25:13.943Z,79.57
2022-11-24T10:27:18.765Z,80.17
2022-11-24T10:29:24.725Z,79.75
2022-11-24T10:31:31.879Z,79.14
2022-11-24T10:33:31.394Z,79.40
2022-11-24T10:35:37.244Z,79.32
2022-11-24T10:37:42.033Z,79.41
2022-11-24T10:39:46.935Z,79.40
2022-11-24T10:42:02.721Z,79.95
2022-11-24T10:44:01.066Z,79.53
2022-11-24T10:46:10.635Z,80.30
2022-11-24T10:48:18.689Z,79.92
2022-11-24T10:50:22.929Z,80.03
2022-11-24T10:52:25.403Z,79.78
2022-11-24T10:54:27.124Z,79.38
2022-11-24T10:56:45.153Z,79.42
2022-11-24T10:58:43.712Z,78.67
2022-11-24T11:00:43.695Z,78.52
2022-11-24T11:02:43.554Z,77.62
2022-11-24T11:04:41.969Z,75.90
2022-11-24T11:06:40.650Z,75.83
2022-11-24T11:08:46.351Z,75.42
2022-11-24T11:10:49.913Z,74.25
2022-11-24T11:12:48.563Z,73.63
2022-11-24T11:14:49.692Z,74.67
2022-11-24T11:16:53.701Z,74.55
2022-11-24T11:18:54.239Z,74.47
2022-11-24T11:20:56.940Z,75.21
2022-11-24T11:22:56.305Z,75.14
2022-11-24T11:25:06.577Z,74.95
2022-11-24T11:27:07.189Z,75.22
2022-11-24T11:31:35.799Z,74.09
2022-11-24T11:35:57.581Z,73.41
2022-11-24T11:37:58.527Z,73.03
2022-11-24T11:39:56.906Z,73.01
2022-11-24T11:42:09.038Z,72.81
2022-11-24T11:44:18.875Z,73.19
2022-11-24T11:46:17.541Z,72.51
2022-11-24T11:48:30.605Z,71.62
2022-11-24T11:51:14.853Z,71.38
2022-11-24T11:53:16.380Z,70.69
2022-11-24T11:55:49.452Z,71.22
2022-11-24T11:57:58.679Z,71.80
2022-11-24T12:00:09.811Z,71.94
2022-11-24T12:02:48.451Z,72.09
2022-11-24T12:04:54.407Z,71.47
2022-11-24T12:07:02.935Z,70.51
2022-11-24T12:09:21.267Z,70.87
2022-11-24T12:11:30.078Z,69.97
2022-11-24T12:13:46.126Z,69.81
2022-11-24T12:15:49.669Z,71.13
2022-11-24T12:17:54.000Z,70.22
2022-11-24T12:20:15.200Z,70.71
2022-11-24T12:22:22.206Z,69.79
2022-11-24T12:24:30.755Z,69.95
2022-11-24T12:26:36.130Z,69.09
2022-11-24T12:28:44.541Z,70.02
2022-11-24T12:30:51.603Z,70.43
2022-11-24T12:33:18.518Z,71.42
2022-11-24T12:35:24.486Z,72.22
2022-11-24T12:37:46.727Z,72.86
2022-11-24T12:39:54.437Z,72.90
2022-11-24T12:42:05.300Z,72.87
2022-11-24T12:44:05.278Z,71.94
2022-11-24T12:46:15.672Z,72.35
2022-11-24T12:48:26.426Z,71.44
2022-11-24T12:50:28.680Z,71.21
2022-11-24T12:52:32.345Z,71.81
2022-11-24T12:54:38.048Z,71.98
2022-11-24T12:56:41.897Z,72.20
2022-11-24T12:58:50.411Z,71.37
2022-11-24T13:01:02.170Z,70.46
2022-11-24T13:03:16.666Z,70.52
2022-11-24T13:05:22.208Z,70.92
2022-11-24T13:07:27.339Z,71.37
2022-11-24T13:09:25.729Z,70.90
2022-11-24T13:11:36.499Z,71.58
2022-11-24T13:13:59.330Z,71.36
2022-11-24T13:18:52.864Z,69.94
2022-11-24T13:20:51.270Z,69.40
2022-11-24T13:22:52.809Z,69.44
2022-11-24T13:25:17.966Z,69.81
2022-11-24T13:27:42.305Z,70.09
2022-11-24T13:29:43.199Z,70.69
2022-11-24T13:31:41.831Z,70.99
2022-11-24T13:33:41.151Z,69.90
2022-11-24T13:35:39.727Z,69.63
2022-11-24T13:37:53.248Z,69.50
2022-11-24T13:39:54.711Z,69.07
2022-11-24T13:42:02.408Z,68.16
2022-11-24T13:44:24.984Z,68.10
2022-11-24T13:47:04.805Z,68.28
2022-11-24T13:49:04.075Z,67.97
2022-11-24T13:51:16.251Z,68.15
2022-11-24T13:53:23.497Z,68.98
2022-11-24T13:55:32.212Z,69.88
2022-11-24T13:57:35.383Z,69.55
2022-11-24T13:59:36.259Z,69.93
2022-11-24T14:01:40.889Z,69.63
2022-11-24T14:04:07.205Z,69.73
2022-11-24T14:06:08.428Z,69.58
2022-11-24T14:08:07.982Z,69.03
2022-11-24T14:10:14.920Z,68.75
2022-11-24T14:12:16.093Z,67.77
2022-11-24T14:14:20.814Z,68.45
2022-11-24T14:16:20.722Z,68.76
2022-11-24T14:18:23.384Z,68.81
2022-11-24T14:20:29.448Z,69.49
2022-11-24T14:22:33.527Z,69.03
2022-11-24T14:24:39.720Z,68.89
2022-11-24T14:26:41.269Z,68.92
2022-11-24T14:28:40.594Z,69.00
2022-11-24T14:30:43.153Z,69.19
2022-11-24T14:32:42.382Z,68.45
2022-11-24T14:34:40.665Z,69.24
2022-11-24T14:36:40.604Z,69.26
2022-11-24T14:38:38.951Z,69.20
2022-11-24T14:40:42.284Z,68.49
2022-11-24T14:42:40.771Z,68.42
2022-11-24T14:44:48.055Z,68.54
2022-11-24T14:46:46.607Z,68.69
2022-11-24T14:48:49.451Z,69.05
2022-11-24T14:50:47.872Z,68.68
2022-11-24T14:52:53.822Z,68.51
2022-11-24T14:54:55.548Z,68.47
2022-11-24T14:57:01.742Z,69.40
2022-11-24T14:59:00.648Z,69.48
2022-11-24T15:01:22.782Z,70.61
2022-11-24T15:03:21.093Z,71.11
2022-11-24T15:05:20.661Z,70.92
2022-11-24T15:07:25.513Z,71.22
2022-11-24T15:09:29.894Z,71.82
2022-11-24T15:11:31.817Z,72.38
2022-11-24T15:13:37.209Z,72.51
2022-11-24T15:15:37.414Z,73.16
2022-11-24T15:17:35.817Z,71.79
2022-11-24T15:19:35.822Z,72.27
2022-11-24T15:21:35.630Z,71.78
2022-11-24T15:23:35.310Z,71.44
2022-11-24T15:25:35.319Z,71.57
2022-11-24T15:27:33.423Z,71.88
2022-11-24T15:29:31.855Z,72.61
2022-11-24T15:31:30.110Z,72.97
2022-11-24T15:33:28.893Z,73.27
2022-11-24T15:35:29.903Z,73.51
2022-11-24T15:37:33.933Z,73.27
2022-11-24T15:39:32.312Z,73.03
2022-11-24T15:41:33.679Z,73.60
2022-11-24T15:43:33.934Z,73.54
2022-11-24T15:45:32.152Z,72.68
2022-11-24T15:47:30.556Z,72.63
2022-11-24T15:49:28.950Z,73.03
2022-11-24T15:51:28.035Z,72.60
2022-11-24T15:53:31.549Z,73.12
2022-11-24T15:55:30.045Z,73.68
2022-11-24T15:57:33.916Z,74.15
2022-11-24T15:59:33.917Z,74.35
2022-11-24T16:01:34.258Z,74.57
2022-11-24T16:03:49.049Z,75.09
2022-11-24T16:05:49.492Z,74.85
2022-11-24T16:07:54.123Z,75.32
2022-11-24T16:09:55.835Z,74.92
2022-11-24T16:11:54.725Z,74.91
2022-11-24T16:13:59.647Z,74.84
2022-11-24T16:15:58.324Z,75.18
2022-11-24T16:17:57.375Z,74.92
2022-11-24T16:20:00.849Z,75.39
2022-11-24T16:22:01.489Z,75.37
2022-11-24T16:24:00.197Z,75.96
2022-11-24T16:25:58.803Z,76.64
2022-11-24T16:27:57.640Z,77.32
2022-11-24T16:29:57.767Z,77.21
2022-11-24T16:32:00.676Z,76.94
2022-11-24T16:33:59.456Z,77.07
2022-11-24T16:35:58.146Z,77.32
2022-11-24T16:37:57.105Z,76.76
2022-11-24T16:39:55.994Z,75.89
2022-11-24T16:41:54.831Z,75.25
2022-11-24T16:43:53.890Z,74.74
2022-11-24T16:46:04.495Z,74.61
2022-11-24T16:48:03.440Z,74.63
2022-11-24T16:50:02.244Z,74.87
2022-11-24T16:52:00.934Z,74.50
2022-11-24T16:54:00.929Z,74.03
2022-11-24T16:56:02.594Z,74.20
2022-11-24T16:58:00.941Z,74.49
2022-11-24T17:00:01.906Z,75.02
2022-11-24T17:02:05.447Z,74.37
2022-11-24T17:04:07.065Z,74.61
2022-11-24T17:06:12.525Z,73.80
2022-11-24T17:08:10.818Z,74.71
2022-11-24T17:10:12.198Z,74.04
2022-11-24T17:12:10.458Z,74.37
2022-11-24T17:14:08.734Z,74.60
2022-11-24T17:16:08.425Z,74.67
2022-11-24T17:18:24.023Z,75.12
2022-11-24T17:20:23.027Z,74.19
2022-11-24T17:22:21.093Z,74.04
2022-11-24T17:24:19.399Z,73.92
2022-11-24T17:26:18.911Z,73.69
2022-11-24T17:28:17.031Z,73.68
2022-11-24T17:30:17.155Z,74.20
2022-11-24T17:32:15.477Z,74.73
2022-11-24T17:34:15.325Z,75.25
2022-11-24T17:36:13.699Z,75.27
2022-11-24T17:38:11.771Z,75.58
2022-11-24T17:40:34.317Z,74.89
2022-11-24T17:42:32.809Z,75.15
2022-11-24T17:44:32.258Z,75.31
2022-11-24T17:46:33.092Z,75.39
2022-11-24T17:48:32.213Z,75.41
2022-11-24T17:50:31.894Z,74.96
2022-11-24T17:52:30.913Z,75.02
2022-11-24T17:54:45.874Z,74.56
2022-11-24T17:56:46.055Z,74.32
2022-11-24T17:58:44.465Z,74.36
2022-11-24T18:00:55.409Z,73.87
2022-11-24T18:02:53.517Z,74.24
2022-11-24T18:04:51.980Z,74.45
2022-11-24T18:06:51.499Z,74.71
2022-11-24T18:08:49.623Z,75.33
2022-11-24T18:10:48.235Z,75.42
2022-11-24T18:12:46.453Z,75.13
2022-11-24T18:14:44.908Z,74.53
2022-11-24T18:16:43.083Z,73.84
2022-11-24T18:18:44.784Z,73.71
2022-11-24T18:20:55.047Z,73.05
2022-11-24T18:23:09.819Z,73.23
2022-11-24T18:25:08.166Z,73.07
2022-11-24T18:27:06.521Z,74.18
2022-11-24T18:29:05.506Z,74.73
2022-11-24T18:31:04.238Z,75.32
2022-11-24T18:33:02.575Z,75.67
2022-11-24T18:35:00.816Z,75.75
2022-11-24T18:36:59.038Z,76.29
2022-11-24T18:38:59.151Z,76.45
2022-11-24T18:40:59.077Z,75.93
2022-11-24T18:42:57.321Z,74.90
2022-11-24T18:44:57.507Z,73.75
2022-11-24T18:46:55.818Z,73.30
2022-11-24T18:48:54.086Z,73.28
2022-11-24T18:50:52.813Z,73.98
2022-11-24T18:52:50.998Z,73.61
2022-11-24T18:54:50.651Z,73.65
2022-11-24T18:56:48.993Z,73.37
2022-11-24T18:58:47.605Z,73.24
2022-11-24T19:00:45.744Z,73.36
2022-11-24T19:02:44.215Z,73.44
2022-11-24T19:04:42.386Z,74.07
2022-11-24T19:06:40.660Z,74.46
2022-11-24T19:08:38.895Z,74.25
2022-11-24T19:10:38.641Z,74.33
2022-11-24T19:12:37.324Z,74.89
2022-11-24T19:14:35.856Z,74.97
2022-11-24T19:16:34.909Z,75.27
2022-11-24T19:18:33.391Z,75.30
2022-11-24T19:20:31.655Z,74.94
2022-11-24T19:22:30.461Z,75.06
2022-11-24T19:24:28.953Z,75.81
2022-11-24T19:26:28.704Z,76.05
2022-11-24T19:28:26.956Z,76.63
2022-11-24T19:30:25.499Z,76.17
2022-11-24T19:32:23.865Z,76.58
2022-11-24T19:34:22.086Z,76.47
2022-11-24T19:36:21.891Z,75.67
2022-11-24T19:38:20.232Z,75.38
2022-11-24T19:40:18.605Z,75.25
2022-11-24T19:42:18.414Z,75.32
2022-11-24T19:44:17.904Z,74.35
2022-11-24T19:46:18.717Z,74.08
2022-11-24T19:48:17.157Z,74.31
2022-11-24T19:50:15.268Z,74.79
2022-11-24T19:52:14.036Z,74.70
2022-11-24T19:54:13.850Z,75.68
2022-11-24T19:56:14.011Z,75.91
2022-11-24T19:58:13.483Z,76.45
2022-11-24T20:00:13.103Z,75.20
2022-11-24T20:02:12.993Z,76.10
2022-11-24T20:04:13.659Z,76.21
2022-11-24T20:06:14.339Z,77.06
2022-11-24T20:08:12.637Z,76.52
2022-11-24T20:10:11.657Z,75.14
2022-11-24T20:12:09.944Z,75.76
2022-11-24T20:14:12.342Z,76.02
2022-11-24T20:16:12.319Z,76.41
2022-11-24T20:18:10.642Z,76.78
2022-11-24T20:20:09.754Z,76.88
2022-11-24T20:22:08.348Z,77.06
2022-11-24T20:24:09.276Z,76.97
2022-11-24T20:26:10.071Z,77.30
2022-11-24T20:28:08.471Z,77.10
2022-11-24T20:30:12.084Z,77.01
2022-11-24T20:32:10.323Z,77.28
2022-11-24T20:34:09.970Z,77.51
2022-11-24T20:36:11.068Z,77.63
2022-11-24T20:38:09.413Z,78.60
2022-11-24T20:40:09.554Z,78.66
2022-11-24T20:42:08.282Z,78.46
2022-11-24T20:44:10.712Z,77.99
2022-11-24T20:46:12.374Z,78.61
2022-11-24T20:48:10.651Z,78.49
2022-11-24T20:50:09.773Z,78.86
2022-11-24T20:52:07.961Z,78.41
2022-11-24T20:54:11.149Z,78.90
2022-11-24T20:56:11.604Z,79.69
2022-11-24T20:58:09.961Z,78.78
2022-11-24T21:00:12.306Z,78.20
2022-11-24T21:02:12.397Z,78.89
2022-11-24T21:04:12.426Z,79.35
2022-11-24T21:06:10.947Z,78.87
2022-11-24T21:08:09.354Z,78.70
2022-11-24T21:10:08.825Z,78.42
2022-11-24T21:12:07.507Z,77.91
2022-11-24T21:14:06.882Z,78.10
2022-11-24T21:16:12.954Z,77.61
2022-11-24T21:18:12.781Z,77.84
2022-11-24T21:20:11.829Z,77.51
2022-11-24T21:22:10.169Z,77.96
2022-11-24T21:24:12.434Z,77.99
2022-11-24T21:26:15.049Z,78.09
2022-11-24T21:28:14.964Z,78.90
2022-11-24T21:30:14.109Z,79.12
2022-11-24T21:32:12.338Z,79.74
2022-11-24T21:34:16.022Z,80.26
2022-11-24T21:36:15.512Z,80.59
2022-11-24T21:38:14.864Z,81.17
2022-11-24T21:40:15.123Z,81.25
2022-11-24T21:42:13.315Z,81.39
2022-11-24T21:44:12.968Z,80.94
2022-11-24T21:46:12.609Z,80.97
2022-11-24T21:48:10.969Z,80.54
2022-11-24T21:50:12.293Z,80.57
2022-11-24T21:52:10.377Z,80.50
2022-11-24T21:54:09.072Z,80.66
2022-11-24T21:56:09.798Z,81.36
2022-11-24T21:58:08.342Z,81.68
2022-11-24T22:00:08.038Z,82.26
2022-11-24T22:02:10.251Z,82.32
2022-11-24T22:04:11.339Z,82.58
2022-11-24T22:06:13.271Z,82.52
2022-11-24T22:08:11.444Z,82.56
2022-11-24T22:10:12.925Z,83.10
2022-11-24T22:12:11.149Z,81.67
2022-11-24T22:14:10.201Z,82.33
2022-11-24T22:16:10.490Z,81.75
2022-11-24T22:18:09.035Z,81.10
2022-11-24T22:20:08.850Z,80.97
2022-11-24T22:22:08.319Z,80.62
2022-11-24T22:24:06.901Z,80.20
2022-11-24T22:26:06.185Z,79.86
2022-11-24T22:28:04.353Z,79.99
2022-11-24T22:30:05.026Z,80.01
2022-11-24T22:32:03.429Z,80.21
2022-11-24T22:34:02.409Z,80.49
2022-11-24T22:36:01.579Z,80.54
2022-11-24T22:38:01.148Z,79.58
2022-11-24T22:39:59.329Z,78.24
2022-11-24T22:41:57.486Z,77.15
2022-11-24T22:43:55.849Z,76.73
2022-11-24T22:45:54.302Z,76.35
2022-11-24T22:47:55.134Z,75.86
2022-11-24T22:49:53.448Z,75.47
2022-11-24T22:51:51.831Z,75.52
2022-11-24T22:53:53.513Z,75.91
2022-11-24T22:55:51.728Z,76.30
2022-11-24T22:57:52.285Z,75.64
2022-11-24T22:59:52.734Z,76.24
2022-11-24T23:01:50.742Z,76.05
2022-11-24T23:03:49.686Z,76.21
2022-11-24T23:05:48.054Z,76.07
2022-11-24T23:07:46.299Z,76.21
2022-11-24T23:09:47.669Z,77.20
2022-11-24T23:11:45.883Z,76.78
2022-11-24T23:13:45.357Z,76.35
2022-11-24T23:15:43.612Z,75.93
2022-11-24T23:17:41.762Z,76.62
2022-11-24T23:19:40.146Z,76.75
2022-11-24T23:21:39.471Z,76.17
2022-11-24T23:23:37.620Z,75.86
2022-11-24T23:25:37.274Z,75.24
2022-11-24T23:27:35.404Z,75.55
2022-11-24T23:29:35.417Z,75.61
2022-11-24T23:31:34.040Z,76.28
2022-11-24T23:33:32.802Z,77.03
2022-11-24T23:35:31.240Z,77.25
2022-11-24T23:37:52.306Z,77.69
2022-11-24T23:39:47.955Z,78.33
2022-11-24T23:41:47.598Z,79.11
2022-11-24T23:43:45.937Z,79.30
2022-11-24T23:45:44.222Z,78.84
2022-11-24T23:47:42.346Z,78.42
2022-11-24T23:49:40.524Z,78.17
2022-11-24T23:51:42.071Z,78.12
2022-11-24T23:53:41.014Z,78.17
2022-11-24T23:55:39.262Z,77.62
2022-11-24T23:57:38.789Z,78.19
2022-11-24T23:59:37.040Z,78.19
